PWSweather.com
Personal Weather Stations
Station Observations
ESTFIQ
Santa Fe, Santa FeAR 3000

Santa FeSanta FeAR 3000

Lat: -31.637, Lon: -60.708

Elevation: 69

Station Type: WH-1081

http://galileo4.unl.edu.ar/estacion

Latest ConditionsUpdated 1:20:01 PM GMT-03:57 Tuesday, Sep 18, 2018
Currently Today's Max Today's Min Today's Average
Temperature 80.4°F26.9°C 80.4°F26.9°C 62.2°F16.8°C 68.9°F20.5°C
Dew Point 53.2°F11.8°C 61.4°F16.3°C 52.5°F11.4°C 57.5°F14.2°C
Winds 17.4 mph N28.0 kmh N 21.3 mph -34.3 kmh - - 6.2 mph 10.0 kmh
Wind Gusts 28.2 mph45.4 kmh 30.4 mph48.9 kmh - -
Humidity 39% 91% 39% 69%
Pressure 29.61 in1002.7 mb 29.77 in1008.1 mb 29.61 in1002.7 mb -
Hour Temp Dew Point Humidity Winds Wind Gusts Pressure Precip Precip Rate Daily Precip Total
01:20 PM 80.4°F26.9°C 53.2°F11.8°C 39% 17.4 mph N28.0 kmh N 28.2 mph45.4 kmh 29.61 in1002.7 mb 0.00 in0.0 mm 0.00 in0.0 mm 0.00 in0.0 mm
01:15 PM 79.2°F26.2°C 52.8°F11.6°C 40% 14.5 mph N23.3 kmh N 28.2 mph45.4 kmh 29.62 in1003.0 mb 0.00 in0.0 mm 0.00 in0.0 mm 0.00 in0.0 mm
01:10 PM 79.9°F26.6°C 53.4°F11.9°C 40% 15.2 mph N24.5 kmh N 23.5 mph37.8 kmh 29.62 in1003.0 mb 0.00 in0.0 mm 0.00 in0.0 mm 0.00 in0.0 mm
01:05 PM 80.1°F26.7°C 52.9°F11.6°C 39% 13.0 mph NNW20.9 kmh NNW 21.3 mph34.3 kmh 29.62 in1003.0 mb 0.00 in0.0 mm 0.00 in0.0 mm 0.00 in0.0 mm
01:00 PM 79.9°F26.6°C 53.4°F11.9°C 40% 16.8 mph N27.0 kmh N 27.3 mph43.9 kmh 29.62 in1003.0 mb 0.00 in0.0 mm 0.00 in0.0 mm 0.00 in0.0 mm
12:55 PM 78.8°F26.0°C 52.5°F11.4°C 40% 13.0 mph N20.9 kmh N 27.3 mph43.9 kmh 29.63 in1003.4 mb 0.00 in0.0 mm 0.00 in0.0 mm 0.00 in0.0 mm
12:50 PM 79.9°F26.6°C 53.4°F11.9°C 40% 13.6 mph N21.9 kmh N 24.4 mph39.3 kmh 29.62 in1003.0 mb 0.00 in0.0 mm 0.00 in0.0 mm 0.00 in0.0 mm
12:45 PM 79.5°F26.4°C 53.8°F12.1°C 41% 16.8 mph NNW27.0 kmh NNW 24.4 mph39.3 kmh 29.62 in1003.0 mb 0.00 in0.0 mm 0.00 in0.0 mm 0.00 in0.0 mm
12:40 PM 78.6°F25.9°C 53.6°F12.0°C 42% 15.2 mph N24.5 kmh N 25.1 mph40.4 kmh 29.63 in1003.4 mb 0.00 in0.0 mm 0.00 in0.0 mm 0.00 in0.0 mm
12:35 PM 78.6°F25.9°C 53.6°F12.0°C 42% 18.3 mph N29.5 kmh N 26.6 mph42.8 kmh 29.64 in1003.7 mb 0.00 in0.0 mm 0.00 in0.0 mm 0.00 in0.0 mm
12:30 PM 77.7°F25.4°C 53.5°F11.9°C 43% 19.0 mph N30.6 kmh N 28.9 mph46.5 kmh 29.64 in1003.7 mb 0.00 in0.0 mm 0.00 in0.0 mm 0.00 in0.0 mm
12:25 PM 77.7°F25.4°C 53.5°F11.9°C 43% 20.6 mph N33.2 kmh N 28.9 mph46.5 kmh 29.65 in1004.1 mb 0.00 in0.0 mm 0.00 in0.0 mm 0.00 in0.0 mm
12:20 PM 78.4°F25.8°C 53.5°F11.9°C 42% 20.6 mph N33.2 kmh N 28.2 mph45.4 kmh 29.65 in1004.1 mb 0.00 in0.0 mm 0.00 in0.0 mm 0.00 in0.0 mm
12:15 PM 78.1°F25.6°C 53.2°F11.8°C 42% 14.5 mph N23.3 kmh N 24.4 mph39.3 kmh 29.65 in1004.1 mb 0.00 in0.0 mm 0.00 in0.0 mm 0.00 in0.0 mm
12:10 PM 77.7°F25.4°C 53.5°F11.9°C 43% 13.0 mph NNW20.9 kmh NNW 26.6 mph42.8 kmh 29.65 in1004.1 mb 0.00 in0.0 mm 0.00 in0.0 mm 0.00 in0.0 mm
12:05 PM 77.0°F25.0°C 52.8°F11.6°C 43% 15.2 mph N24.5 kmh N 27.3 mph43.9 kmh 29.66 in1004.4 mb 0.00 in0.0 mm 0.00 in0.0 mm 0.00 in0.0 mm
12:00 PM 77.0°F25.0°C 52.8°F11.6°C 43% 16.8 mph N27.0 kmh N 27.3 mph43.9 kmh 29.66 in1004.4 mb 0.00 in0.0 mm 0.00 in0.0 mm 0.00 in0.0 mm
11:55 AM 77.4°F25.2°C 53.2°F11.8°C 43% 13.6 mph N21.9 kmh N 30.4 mph48.9 kmh 29.66 in1004.4 mb 0.00 in0.0 mm 0.00 in0.0 mm 0.00 in0.0 mm
11:50 AM 77.5°F25.3°C 53.9°F12.2°C 44% 20.6 mph N33.2 kmh N 30.4 mph48.9 kmh 29.67 in1004.7 mb 0.00 in0.0 mm 0.00 in0.0 mm 0.00 in0.0 mm
11:45 AM 77.5°F25.3°C 54.6°F12.6°C 45% 15.2 mph N24.5 kmh N 19.7 mph31.7 kmh 29.67 in1004.7 mb 0.00 in0.0 mm 0.00 in0.0 mm 0.00 in0.0 mm
11:40 AM 77.2°F25.1°C 53.6°F12.0°C 44% 13.0 mph N20.9 kmh N 28.2 mph45.4 kmh 29.67 in1004.7 mb 0.00 in0.0 mm 0.00 in0.0 mm 0.00 in0.0 mm
11:35 AM 75.9°F24.4°C 53.1°F11.7°C 45% 14.5 mph N23.3 kmh N 28.2 mph45.4 kmh 29.67 in1004.7 mb 0.00 in0.0 mm 0.00 in0.0 mm 0.00 in0.0 mm
11:30 AM 76.5°F24.7°C 53.0°F11.7°C 44% 21.3 mph N34.3 kmh N 28.2 mph45.4 kmh 29.67 in1004.7 mb 0.00 in0.0 mm 0.00 in0.0 mm 0.00 in0.0 mm
11:25 AM 76.5°F24.7°C 54.2°F12.3°C 46% 15.9 mph N25.6 kmh N 24.4 mph39.3 kmh 29.66 in1004.4 mb 0.00 in0.0 mm 0.00 in0.0 mm 0.00 in0.0 mm
11:20 AM 75.7°F24.3°C 53.5°F11.9°C 46% 17.4 mph NNW28.0 kmh NNW 25.1 mph40.4 kmh 29.67 in1004.7 mb 0.00 in0.0 mm 0.00 in0.0 mm 0.00 in0.0 mm
11:15 AM 75.2°F24.0°C 53.0°F11.7°C 46% 15.9 mph N25.6 kmh N 25.1 mph40.4 kmh 29.67 in1004.7 mb 0.00 in0.0 mm 0.00 in0.0 mm 0.00 in0.0 mm
11:10 AM 75.0°F23.9°C 54.0°F12.2°C 48% 18.3 mph N29.5 kmh N 25.1 mph40.4 kmh 29.67 in1004.7 mb 0.00 in0.0 mm 0.00 in0.0 mm 0.00 in0.0 mm
11:05 AM 75.0°F23.9°C 54.0°F12.2°C 48% 13.0 mph NNW20.9 kmh NNW 25.1 mph40.4 kmh 29.67 in1004.7 mb 0.00 in0.0 mm 0.00 in0.0 mm 0.00 in0.0 mm
11:00 AM 75.0°F23.9°C 54.0°F12.2°C 48% 14.5 mph N23.3 kmh N 25.9 mph41.7 kmh 29.67 in1004.7 mb 0.00 in0.0 mm 0.00 in0.0 mm 0.00 in0.0 mm
10:55 AM 75.0°F23.9°C 54.6°F12.6°C 49% 13.6 mph N21.9 kmh N 25.9 mph41.7 kmh 29.68 in1005.1 mb 0.00 in0.0 mm 0.00 in0.0 mm 0.00 in0.0 mm
10:50 AM 75.0°F23.9°C 54.6°F12.6°C 49% 19.7 mph N31.7 kmh N 25.9 mph41.7 kmh 29.68 in1005.1 mb 0.00 in0.0 mm 0.00 in0.0 mm 0.00 in0.0 mm
10:45 AM 73.4°F23.0°C 54.2°F12.3°C 51% 10.7 mph N17.2 kmh N 23.5 mph37.8 kmh 29.68 in1005.1 mb 0.00 in0.0 mm 0.00 in0.0 mm 0.00 in0.0 mm
10:40 AM 73.4°F23.0°C 54.7°F12.6°C 52% 15.2 mph N24.5 kmh N 27.3 mph43.9 kmh 29.69 in1005.4 mb 0.00 in0.0 mm 0.00 in0.0 mm 0.00 in0.0 mm
10:35 AM 73.2°F22.9°C 54.0°F12.2°C 51% 15.9 mph N25.6 kmh N 27.3 mph43.9 kmh 29.69 in1005.4 mb 0.00 in0.0 mm 0.00 in0.0 mm 0.00 in0.0 mm
10:30 AM 73.2°F22.9°C 55.6°F13.1°C 54% 10.7 mph N17.2 kmh N 19.7 mph31.7 kmh 29.68 in1005.1 mb 0.00 in0.0 mm 0.00 in0.0 mm 0.00 in0.0 mm
10:25 AM 73.2°F22.9°C 55.1°F12.8°C 53% 10.7 mph N17.2 kmh N 18.3 mph29.5 kmh 29.68 in1005.1 mb 0.00 in0.0 mm 0.00 in0.0 mm 0.00 in0.0 mm
10:20 AM 73.0°F22.8°C 56.4°F13.6°C 56% 7.6 mph N12.2 kmh N 19.0 mph30.6 kmh 29.69 in1005.4 mb 0.00 in0.0 mm 0.00 in0.0 mm 0.00 in0.0 mm
10:15 AM 72.9°F22.7°C 55.3°F12.9°C 54% 12.1 mph N19.5 kmh N 19.0 mph30.6 kmh 29.69 in1005.4 mb 0.00 in0.0 mm 0.00 in0.0 mm 0.00 in0.0 mm
10:10 AM 72.7°F22.6°C 56.1°F13.4°C 56% 9.2 mph N14.8 kmh N 17.4 mph28.0 kmh 29.69 in1005.4 mb 0.00 in0.0 mm 0.00 in0.0 mm 0.00 in0.0 mm
10:05 AM 72.1°F22.3°C 55.1°F12.8°C 55% 6.0 mph N9.7 kmh N 18.3 mph29.5 kmh 29.69 in1005.4 mb 0.00 in0.0 mm 0.00 in0.0 mm 0.00 in0.0 mm
10:00 AM 72.1°F22.3°C 55.1°F12.8°C 55% 10.7 mph NNW17.2 kmh NNW 18.3 mph29.5 kmh 29.68 in1005.1 mb 0.00 in0.0 mm 0.00 in0.0 mm 0.00 in0.0 mm
09:55 AM 72.3°F22.4°C 56.3°F13.5°C 57% 9.8 mph N15.8 kmh N 13.6 mph21.9 kmh 29.69 in1005.4 mb 0.00 in0.0 mm 0.00 in0.0 mm 0.00 in0.0 mm
09:50 AM 71.8°F22.1°C 56.2°F13.4°C 58% 9.2 mph N14.8 kmh N 14.5 mph23.3 kmh 29.69 in1005.4 mb 0.00 in0.0 mm 0.00 in0.0 mm 0.00 in0.0 mm
09:45 AM 71.4°F21.9°C 56.8°F13.8°C 60% 10.7 mph N17.2 kmh N 14.5 mph23.3 kmh 29.68 in1005.1 mb 0.00 in0.0 mm 0.00 in0.0 mm 0.00 in0.0 mm
09:40 AM 70.9°F21.6°C 56.3°F13.5°C 60% 8.3 mph N13.4 kmh N 15.2 mph24.5 kmh 29.68 in1005.1 mb 0.00 in0.0 mm 0.00 in0.0 mm 0.00 in0.0 mm
09:35 AM 70.7°F21.5°C 56.6°F13.7°C 61% 7.6 mph NNE12.2 kmh NNE 15.2 mph24.5 kmh 29.69 in1005.4 mb 0.00 in0.0 mm 0.00 in0.0 mm 0.00 in0.0 mm
09:30 AM 70.5°F21.4°C 57.3°F14.1°C 63% 3.8 mph NE6.1 kmh NE 13.6 mph21.9 kmh 29.69 in1005.4 mb 0.00 in0.0 mm 0.00 in0.0 mm 0.00 in0.0 mm
09:25 AM 70.5°F21.4°C 58.2°F14.6°C 65% 3.8 mph NE6.1 kmh NE 13.0 mph20.9 kmh 29.68 in1005.1 mb 0.00 in0.0 mm 0.00 in0.0 mm 0.00 in0.0 mm
09:20 AM 69.4°F20.8°C 58.9°F14.9°C 69% 3.1 mph NE5.0 kmh NE 11.4 mph18.3 kmh 29.68 in1005.1 mb 0.00 in0.0 mm 0.00 in0.0 mm 0.00 in0.0 mm
09:15 AM 68.4°F20.2°C 58.6°F14.8°C 71% 3.8 mph NNE6.1 kmh NNE 11.4 mph18.3 kmh 29.69 in1005.4 mb 0.00 in0.0 mm 0.00 in0.0 mm 0.00 in0.0 mm
09:10 AM 67.5°F19.7°C 58.5°F14.7°C 73% 6.0 mph NNE9.7 kmh NNE 10.7 mph17.2 kmh 29.69 in1005.4 mb 0.00 in0.0 mm 0.00 in0.0 mm 0.00 in0.0 mm
09:05 AM 68.2°F20.1°C 58.4°F14.7°C 71% 6.0 mph NE9.7 kmh NE 10.7 mph17.2 kmh 29.69 in1005.4 mb 0.00 in0.0 mm 0.00 in0.0 mm 0.00 in0.0 mm
09:00 AM 68.5°F20.3°C 58.4°F14.7°C 70% 4.5 mph NE7.2 kmh NE 12.1 mph19.5 kmh 29.69 in1005.4 mb 0.00 in0.0 mm 0.00 in0.0 mm 0.00 in0.0 mm
08:55 AM 68.4°F20.2°C 58.2°F14.6°C 70% 6.9 mph NE11.1 kmh NE 12.1 mph19.5 kmh 29.69 in1005.4 mb 0.00 in0.0 mm 0.00 in0.0 mm 0.00 in0.0 mm
08:50 AM 68.9°F20.5°C 58.7°F14.8°C 70% 6.9 mph NE11.1 kmh NE 10.7 mph17.2 kmh 29.69 in1005.4 mb 0.00 in0.0 mm 0.00 in0.0 mm 0.00 in0.0 mm
08:45 AM 68.5°F20.3°C 58.8°F14.9°C 71% 6.0 mph NE9.7 kmh NE 10.7 mph17.2 kmh 29.69 in1005.4 mb 0.00 in0.0 mm 0.00 in0.0 mm 0.00 in0.0 mm
08:40 AM 68.4°F20.2°C 58.6°F14.8°C 71% 4.5 mph NE7.2 kmh NE 18.3 mph29.5 kmh 29.70 in1005.8 mb 0.00 in0.0 mm 0.00 in0.0 mm 0.00 in0.0 mm
08:35 AM 68.2°F20.1°C 58.4°F14.7°C 71% 5.4 mph NE8.7 kmh NE 18.3 mph29.5 kmh 29.69 in1005.4 mb 0.00 in0.0 mm 0.00 in0.0 mm 0.00 in0.0 mm
08:30 AM 68.7°F20.4°C 59.0°F15.0°C 71% 9.8 mph NNE15.8 kmh NNE 18.3 mph29.5 kmh 29.70 in1005.8 mb 0.00 in0.0 mm 0.00 in0.0 mm 0.00 in0.0 mm
08:25 AM 68.5°F20.3°C 58.8°F14.9°C 71% 2.2 mph NNE3.5 kmh NNE 11.4 mph18.3 kmh 29.70 in1005.8 mb 0.00 in0.0 mm 0.00 in0.0 mm 0.00 in0.0 mm
08:20 AM 68.4°F20.2°C 59.0°F15.0°C 72% 5.4 mph NE8.7 kmh NE 9.2 mph14.8 kmh 29.70 in1005.8 mb 0.00 in0.0 mm 0.00 in0.0 mm 0.00 in0.0 mm
08:15 AM 68.2°F20.1°C 58.8°F14.9°C 72% 4.5 mph NE7.2 kmh NE 9.8 mph15.8 kmh 29.70 in1005.8 mb 0.00 in0.0 mm 0.00 in0.0 mm 0.00 in0.0 mm
08:10 AM 67.6°F19.8°C 58.7°F14.8°C 73% 1.6 mph NE2.6 kmh NE 12.1 mph19.5 kmh 29.70 in1005.8 mb 0.00 in0.0 mm 0.00 in0.0 mm 0.00 in0.0 mm
08:05 AM 67.3°F19.6°C 58.7°F14.8°C 74% 3.8 mph NE6.1 kmh NE 12.1 mph19.5 kmh 29.69 in1005.4 mb 0.00 in0.0 mm 0.00 in0.0 mm 0.00 in0.0 mm
08:00 AM 66.7°F19.3°C 58.2°F14.6°C 74% 3.8 mph NE6.1 kmh NE 7.6 mph12.2 kmh 29.69 in1005.4 mb 0.00 in0.0 mm 0.00 in0.0 mm 0.00 in0.0 mm
07:55 AM 66.4°F19.1°C 58.2°F14.6°C 75% 3.1 mph NE5.0 kmh NE 6.0 mph9.7 kmh 29.69 in1005.4 mb 0.00 in0.0 mm 0.00 in0.0 mm 0.00 in0.0 mm
07:50 AM 65.7°F18.7°C 58.6°F14.8°C 78% 3.1 mph NE5.0 kmh NE 6.9 mph11.1 kmh 29.69 in1005.4 mb 0.00 in0.0 mm 0.00 in0.0 mm 0.00 in0.0 mm
07:45 AM 65.1°F18.4°C 58.5°F14.7°C 79% 2.2 mph NE3.5 kmh NE 6.9 mph11.1 kmh 29.69 in1005.4 mb 0.00 in0.0 mm 0.00 in0.0 mm 0.00 in0.0 mm
07:40 AM 64.4°F18.0°C 58.5°F14.7°C 81% 5.4 mph NE8.7 kmh NE 6.9 mph11.1 kmh 29.69 in1005.4 mb 0.00 in0.0 mm 0.00 in0.0 mm 0.00 in0.0 mm
07:35 AM 64.0°F17.8°C 58.5°F14.7°C 82% 3.8 mph ENE6.1 kmh ENE 6.9 mph11.1 kmh 29.69 in1005.4 mb 0.00 in0.0 mm 0.00 in0.0 mm 0.00 in0.0 mm
07:30 AM 63.1°F17.3°C 58.6°F14.8°C 85% 3.1 mph E5.0 kmh E 7.6 mph12.2 kmh 29.68 in1005.1 mb 0.00 in0.0 mm 0.00 in0.0 mm 0.00 in0.0 mm
07:25 AM 62.2°F16.8°C 58.3°F14.6°C 87% 1.6 mph E2.6 kmh E 7.6 mph12.2 kmh 29.68 in1005.1 mb 0.00 in0.0 mm 0.00 in0.0 mm 0.00 in0.0 mm
07:20 AM 62.2°F16.8°C 58.7°F14.8°C 88% 4.5 mph ENE7.2 kmh ENE 6.9 mph11.1 kmh 29.68 in1005.1 mb 0.00 in0.0 mm 0.00 in0.0 mm 0.00 in0.0 mm
07:10 AM 62.2°F16.8°C 59.3°F15.2°C 90% 2.2 mph NE3.5 kmh NE 6.9 mph11.1 kmh 29.69 in1005.4 mb 0.00 in0.0 mm 0.00 in0.0 mm 0.00 in0.0 mm
07:05 AM 62.2°F16.8°C 59.3°F15.2°C 90% 3.1 mph N5.0 kmh N 7.6 mph12.2 kmh 29.69 in1005.4 mb 0.00 in0.0 mm 0.00 in0.0 mm 0.00 in0.0 mm
07:00 AM 62.4°F16.9°C 59.8°F15.4°C 91% 2.2 mph N3.5 kmh N 7.6 mph12.2 kmh 29.69 in1005.4 mb 0.00 in0.0 mm 0.00 in0.0 mm 0.00 in0.0 mm
06:55 AM 62.8°F17.1°C 59.8°F15.4°C 90% 4.5 mph N7.2 kmh N 8.3 mph13.4 kmh 29.70 in1005.8 mb 0.00 in0.0 mm 0.00 in0.0 mm 0.00 in0.0 mm
06:50 AM 63.0°F17.2°C 60.0°F15.6°C 90% 3.8 mph N6.1 kmh N 12.1 mph19.5 kmh 29.69 in1005.4 mb 0.00 in0.0 mm 0.00 in0.0 mm 0.00 in0.0 mm
06:45 AM 63.3°F17.4°C 60.4°F15.8°C 90% 5.4 mph NNE8.7 kmh NNE 12.1 mph19.5 kmh 29.69 in1005.4 mb 0.00 in0.0 mm 0.00 in0.0 mm 0.00 in0.0 mm
06:40 AM 63.5°F17.5°C 60.5°F15.8°C 90% 6.9 mph NNE11.1 kmh NNE 12.1 mph19.5 kmh 29.69 in1005.4 mb 0.00 in0.0 mm 0.00 in0.0 mm 0.00 in0.0 mm
06:35 AM 63.7°F17.6°C 60.7°F15.9°C 90% 6.9 mph N11.1 kmh N 9.2 mph14.8 kmh 29.69 in1005.4 mb 0.00 in0.0 mm 0.00 in0.0 mm 0.00 in0.0 mm
06:30 AM 63.9°F17.7°C 60.9°F16.1°C 90% 3.8 mph N6.1 kmh N 9.2 mph14.8 kmh 29.69 in1005.4 mb 0.00 in0.0 mm 0.00 in0.0 mm 0.00 in0.0 mm
06:25 AM 64.0°F17.8°C 61.1°F16.2°C 90% 2.2 mph NE3.5 kmh NE 7.6 mph12.2 kmh 29.68 in1005.1 mb 0.00 in0.0 mm 0.00 in0.0 mm 0.00 in0.0 mm
06:20 AM 64.0°F17.8°C 61.1°F16.2°C 90% 2.2 mph ENE3.5 kmh ENE 6.0 mph9.7 kmh 29.68 in1005.1 mb 0.00 in0.0 mm 0.00 in0.0 mm 0.00 in0.0 mm
06:15 AM 64.0°F17.8°C 61.1°F16.2°C 90% 4.5 mph E7.2 kmh E 6.9 mph11.1 kmh 29.68 in1005.1 mb 0.00 in0.0 mm 0.00 in0.0 mm 0.00 in0.0 mm
06:10 AM 64.2°F17.9°C 60.9°F16.1°C 89% 3.8 mph E6.1 kmh E 6.9 mph11.1 kmh 29.68 in1005.1 mb 0.00 in0.0 mm 0.00 in0.0 mm 0.00 in0.0 mm
06:05 AM 64.2°F17.9°C 60.9°F16.1°C 89% 3.8 mph NE6.1 kmh NE 7.6 mph12.2 kmh 29.68 in1005.1 mb 0.00 in0.0 mm 0.00 in0.0 mm 0.00 in0.0 mm
06:00 AM 64.4°F18.0°C 61.4°F16.3°C 90% 2.2 mph NE3.5 kmh NE 7.6 mph12.2 kmh 29.68 in1005.1 mb 0.00 in0.0 mm 0.00 in0.0 mm 0.00 in0.0 mm
05:55 AM 64.4°F18.0°C 61.4°F16.3°C 90% 2.2 mph NE3.5 kmh NE 6.9 mph11.1 kmh 29.68 in1005.1 mb 0.00 in0.0 mm 0.00 in0.0 mm 0.00 in0.0 mm
05:50 AM 64.4°F18.0°C 61.1°F16.2°C 89% 3.8 mph NNE6.1 kmh NNE 6.9 mph11.1 kmh 29.67 in1004.7 mb 0.00 in0.0 mm 0.00 in0.0 mm 0.00 in0.0 mm
05:45 AM 64.4°F18.0°C 61.1°F16.2°C 89% 3.1 mph NE5.0 kmh NE 6.9 mph11.1 kmh 29.67 in1004.7 mb 0.00 in0.0 mm 0.00 in0.0 mm 0.00 in0.0 mm
05:40 AM 64.6°F18.1°C 61.3°F16.3°C 89% 2.2 mph NE3.5 kmh NE 6.9 mph11.1 kmh 29.68 in1005.1 mb 0.00 in0.0 mm 0.00 in0.0 mm 0.00 in0.0 mm
05:35 AM 64.6°F18.1°C 61.0°F16.1°C 88% 2.2 mph N3.5 kmh N 6.0 mph9.7 kmh 29.67 in1004.7 mb 0.00 in0.0 mm 0.00 in0.0 mm 0.00 in0.0 mm
05:30 AM 64.8°F18.2°C 61.1°F16.2°C 88% 2.2 mph NNE3.5 kmh NNE 7.6 mph12.2 kmh 29.68 in1005.1 mb 0.00 in0.0 mm 0.00 in0.0 mm 0.00 in0.0 mm
05:25 AM 64.8°F18.2°C 60.8°F16.0°C 87% 3.8 mph NE6.1 kmh NE 7.6 mph12.2 kmh 29.67 in1004.7 mb 0.00 in0.0 mm 0.00 in0.0 mm 0.00 in0.0 mm
05:20 AM 64.8°F18.2°C 60.8°F16.0°C 87% 5.4 mph NE8.7 kmh NE 7.6 mph12.2 kmh 29.68 in1005.1 mb 0.00 in0.0 mm 0.00 in0.0 mm 0.00 in0.0 mm
05:15 AM 64.8°F18.2°C 60.8°F16.0°C 87% 3.1 mph NE5.0 kmh NE 6.9 mph11.1 kmh 29.68 in1005.1 mb 0.00 in0.0 mm 0.00 in0.0 mm 0.00 in0.0 mm
05:10 AM 64.8°F18.2°C 60.5°F15.8°C 86% 3.8 mph NE6.1 kmh NE 6.9 mph11.1 kmh 29.68 in1005.1 mb 0.00 in0.0 mm 0.00 in0.0 mm 0.00 in0.0 mm
05:05 AM 64.8°F18.2°C 60.5°F15.8°C 86% 2.2 mph NE3.5 kmh NE 8.3 mph13.4 kmh 29.68 in1005.1 mb 0.00 in0.0 mm 0.00 in0.0 mm 0.00 in0.0 mm
05:00 AM 64.8°F18.2°C 60.5°F15.8°C 86% 4.5 mph NE7.2 kmh NE 8.3 mph13.4 kmh 29.68 in1005.1 mb 0.00 in0.0 mm 0.00 in0.0 mm 0.00 in0.0 mm
04:55 AM 64.8°F18.2°C 60.2°F15.7°C 85% 3.8 mph NE6.1 kmh NE 6.9 mph11.1 kmh 29.68 in1005.1 mb 0.00 in0.0 mm 0.00 in0.0 mm 0.00 in0.0 mm
04:50 AM 64.8°F18.2°C 59.8°F15.4°C 84% 3.8 mph NE6.1 kmh NE 7.6 mph12.2 kmh 29.68 in1005.1 mb 0.00 in0.0 mm 0.00 in0.0 mm 0.00 in0.0 mm
04:45 AM 65.1°F18.4°C 60.2°F15.7°C 84% 2.2 mph NE3.5 kmh NE 7.6 mph12.2 kmh 29.68 in1005.1 mb 0.00 in0.0 mm 0.00 in0.0 mm 0.00 in0.0 mm
04:40 AM 65.1°F18.4°C 59.8°F15.4°C 83% 2.2 mph NE3.5 kmh NE 6.9 mph11.1 kmh 29.68 in1005.1 mb 0.00 in0.0 mm 0.00 in0.0 mm 0.00 in0.0 mm
04:35 AM 65.1°F18.4°C 59.8°F15.4°C 83% 2.2 mph NE3.5 kmh NE 6.9 mph11.1 kmh 29.68 in1005.1 mb 0.00 in0.0 mm 0.00 in0.0 mm 0.00 in0.0 mm
04:30 AM 65.1°F18.4°C 59.5°F15.3°C 82% 3.8 mph NE6.1 kmh NE 6.9 mph11.1 kmh 29.68 in1005.1 mb 0.00 in0.0 mm 0.00 in0.0 mm 0.00 in0.0 mm
04:25 AM 65.1°F18.4°C 59.5°F15.3°C 82% 3.1 mph NNE5.0 kmh NNE 5.4 mph8.7 kmh 29.69 in1005.4 mb 0.00 in0.0 mm 0.00 in0.0 mm 0.00 in0.0 mm
04:20 AM 65.1°F18.4°C 59.5°F15.3°C 82% 3.1 mph NNE5.0 kmh NNE 5.4 mph8.7 kmh 29.68 in1005.1 mb 0.00 in0.0 mm 0.00 in0.0 mm 0.00 in0.0 mm
04:15 AM 64.9°F18.3°C 59.7°F15.4°C 83% 2.2 mph NE3.5 kmh NE 5.4 mph8.7 kmh 29.69 in1005.4 mb 0.00 in0.0 mm 0.00 in0.0 mm 0.00 in0.0 mm
04:10 AM 64.9°F18.3°C 59.7°F15.4°C 83% 2.2 mph NE3.5 kmh NE 5.4 mph8.7 kmh 29.69 in1005.4 mb 0.00 in0.0 mm 0.00 in0.0 mm 0.00 in0.0 mm
04:05 AM 64.8°F18.2°C 59.5°F15.3°C 83% 2.2 mph NE3.5 kmh NE 5.4 mph8.7 kmh 29.69 in1005.4 mb 0.00 in0.0 mm 0.00 in0.0 mm 0.00 in0.0 mm
04:00 AM 64.8°F18.2°C 59.5°F15.3°C 83% 3.8 mph NE6.1 kmh NE 5.4 mph8.7 kmh 29.69 in1005.4 mb 0.00 in0.0 mm 0.00 in0.0 mm 0.00 in0.0 mm
03:55 AM 64.6°F18.1°C 59.0°F15.0°C 82% 3.1 mph NE5.0 kmh NE 6.0 mph9.7 kmh 29.70 in1005.8 mb 0.00 in0.0 mm 0.00 in0.0 mm 0.00 in0.0 mm
03:50 AM 64.6°F18.1°C 59.0°F15.0°C 82% 2.2 mph NE3.5 kmh NE 6.0 mph9.7 kmh 29.70 in1005.8 mb 0.00 in0.0 mm 0.00 in0.0 mm 0.00 in0.0 mm
03:45 AM 64.8°F18.2°C 58.8°F14.9°C 81% 2.2 mph NE3.5 kmh NE 5.4 mph8.7 kmh 29.70 in1005.8 mb 0.00 in0.0 mm 0.00 in0.0 mm 0.00 in0.0 mm
03:40 AM 64.9°F18.3°C 59.0°F15.0°C 81% 2.2 mph E3.5 kmh E 6.0 mph9.7 kmh 29.70 in1005.8 mb 0.00 in0.0 mm 0.00 in0.0 mm 0.00 in0.0 mm
03:35 AM 64.9°F18.3°C 58.6°F14.8°C 80% 3.1 mph E5.0 kmh E 6.0 mph9.7 kmh 29.70 in1005.8 mb 0.00 in0.0 mm 0.00 in0.0 mm 0.00 in0.0 mm
03:30 AM 64.9°F18.3°C 58.6°F14.8°C 80% 2.2 mph E3.5 kmh E 6.0 mph9.7 kmh 29.70 in1005.8 mb 0.00 in0.0 mm 0.00 in0.0 mm 0.00 in0.0 mm
03:25 AM 65.3°F18.5°C 58.6°F14.8°C 79% 3.1 mph E5.0 kmh E 7.6 mph12.2 kmh 29.70 in1005.8 mb 0.00 in0.0 mm 0.00 in0.0 mm 0.00 in0.0 mm
03:20 AM 65.3°F18.5°C 58.6°F14.8°C 79% 2.2 mph ENE3.5 kmh ENE 7.6 mph12.2 kmh 29.70 in1005.8 mb 0.00 in0.0 mm 0.00 in0.0 mm 0.00 in0.0 mm
03:15 AM 65.3°F18.5°C 58.6°F14.8°C 79% 4.5 mph NE7.2 kmh NE 6.9 mph11.1 kmh 29.70 in1005.8 mb 0.00 in0.0 mm 0.00 in0.0 mm 0.00 in0.0 mm
03:10 AM 65.7°F18.7°C 59.0°F15.0°C 79% 1.6 mph NE2.6 kmh NE 5.4 mph8.7 kmh 29.70 in1005.8 mb 0.00 in0.0 mm 0.00 in0.0 mm 0.00 in0.0 mm
03:05 AM 65.7°F18.7°C 58.6°F14.8°C 78% 1.6 mph ENE2.6 kmh ENE 6.0 mph9.7 kmh 29.70 in1005.8 mb 0.00 in0.0 mm 0.00 in0.0 mm 0.00 in0.0 mm
03:00 AM 65.7°F18.7°C 58.6°F14.8°C 78% 1.6 mph ENE2.6 kmh ENE 6.0 mph9.7 kmh 29.70 in1005.8 mb 0.00 in0.0 mm 0.00 in0.0 mm 0.00 in0.0 mm
02:55 AM 65.8°F18.8°C 58.4°F14.7°C 77% 2.2 mph E3.5 kmh E 7.6 mph12.2 kmh 29.71 in1006.1 mb 0.00 in0.0 mm 0.00 in0.0 mm 0.00 in0.0 mm
02:50 AM 66.0°F18.9°C 58.6°F14.8°C 77% 2.2 mph E3.5 kmh E 7.6 mph12.2 kmh 29.70 in1005.8 mb 0.00 in0.0 mm 0.00 in0.0 mm 0.00 in0.0 mm
02:45 AM 66.0°F18.9°C 58.3°F14.6°C 76% 5.4 mph E8.7 kmh E 7.6 mph12.2 kmh 29.71 in1006.1 mb 0.00 in0.0 mm 0.00 in0.0 mm 0.00 in0.0 mm
02:40 AM 66.2°F19.0°C 58.1°F14.5°C 75% 4.5 mph E7.2 kmh E 7.6 mph12.2 kmh 29.71 in1006.1 mb 0.00 in0.0 mm 0.00 in0.0 mm 0.00 in0.0 mm
02:35 AM 66.2°F19.0°C 58.1°F14.5°C 75% 2.2 mph E3.5 kmh E 7.6 mph12.2 kmh 29.72 in1006.4 mb 0.00 in0.0 mm 0.00 in0.0 mm 0.00 in0.0 mm
02:30 AM 66.6°F19.2°C 58.0°F14.4°C 74% 5.4 mph E8.7 kmh E 7.6 mph12.2 kmh 29.72 in1006.4 mb 0.00 in0.0 mm 0.00 in0.0 mm 0.00 in0.0 mm
02:25 AM 66.7°F19.3°C 58.2°F14.6°C 74% 4.5 mph E7.2 kmh E 6.0 mph9.7 kmh 29.72 in1006.4 mb 0.00 in0.0 mm 0.00 in0.0 mm 0.00 in0.0 mm
02:20 AM 66.9°F19.4°C 58.0°F14.4°C 73% 3.1 mph E5.0 kmh E 8.3 mph13.4 kmh 29.73 in1006.8 mb 0.00 in0.0 mm 0.00 in0.0 mm 0.00 in0.0 mm
02:15 AM 67.1°F19.5°C 57.8°F14.3°C 72% 3.1 mph E5.0 kmh E 8.3 mph13.4 kmh 29.73 in1006.8 mb 0.00 in0.0 mm 0.00 in0.0 mm 0.00 in0.0 mm
02:10 AM 67.5°F19.7°C 57.8°F14.3°C 71% 4.5 mph E7.2 kmh E 8.3 mph13.4 kmh 29.73 in1006.8 mb 0.00 in0.0 mm 0.00 in0.0 mm 0.00 in0.0 mm
02:05 AM 67.5°F19.7°C 57.8°F14.3°C 71% 4.5 mph ESE7.2 kmh ESE 6.0 mph9.7 kmh 29.73 in1006.8 mb 0.00 in0.0 mm 0.00 in0.0 mm 0.00 in0.0 mm
02:00 AM 67.5°F19.7°C 57.8°F14.3°C 71% 1.6 mph E2.6 kmh E 4.5 mph7.2 kmh 29.73 in1006.8 mb 0.00 in0.0 mm 0.00 in0.0 mm 0.00 in0.0 mm
01:55 AM 67.5°F19.7°C 57.8°F14.3°C 71% 2.2 mph ESE3.5 kmh ESE 4.5 mph7.2 kmh 29.74 in1007.1 mb 0.00 in0.0 mm 0.00 in0.0 mm 0.00 in0.0 mm
01:50 AM 67.6°F19.8°C 57.9°F14.4°C 71% 1.6 mph ESE2.6 kmh ESE 4.5 mph7.2 kmh 29.74 in1007.1 mb 0.00 in0.0 mm 0.00 in0.0 mm 0.00 in0.0 mm
01:45 AM 67.6°F19.8°C 57.5°F14.2°C 70% 0.7 mph E1.1 kmh E 5.4 mph8.7 kmh 29.75 in1007.5 mb 0.00 in0.0 mm 0.00 in0.0 mm 0.00 in0.0 mm
01:40 AM 67.8°F19.9°C 57.7°F14.3°C 70% 1.6 mph E2.6 kmh E 5.4 mph8.7 kmh 29.74 in1007.1 mb 0.00 in0.0 mm 0.00 in0.0 mm 0.00 in0.0 mm
01:35 AM 67.6°F19.8°C 57.5°F14.2°C 70% 3.8 mph E6.1 kmh E 5.4 mph8.7 kmh 29.74 in1007.1 mb 0.00 in0.0 mm 0.00 in0.0 mm 0.00 in0.0 mm
01:30 AM 67.8°F19.9°C 57.7°F14.3°C 70% Calm Calm -- 29.75 in1007.5 mb 0.00 in0.0 mm 0.00 in0.0 mm 0.00 in0.0 mm
01:25 AM 67.8°F19.9°C 57.3°F14.1°C 69% Calm Calm -- 29.75 in1007.5 mb 0.00 in0.0 mm 0.00 in0.0 mm 0.00 in0.0 mm
01:20 AM 68.0°F20.0°C 57.1°F13.9°C 68% Calm Calm -- 29.75 in1007.5 mb 0.00 in0.0 mm 0.00 in0.0 mm 0.00 in0.0 mm
01:15 AM 68.0°F20.0°C 57.5°F14.2°C 69% Calm Calm -- 29.75 in1007.5 mb 0.00 in0.0 mm 0.00 in0.0 mm 0.00 in0.0 mm
01:10 AM 67.8°F19.9°C 57.7°F14.3°C 70% Calm Calm -- 29.75 in1007.5 mb 0.00 in0.0 mm 0.00 in0.0 mm 0.00 in0.0 mm
01:05 AM 67.8°F19.9°C 58.1°F14.5°C 71% Calm Calm -- 29.76 in1007.8 mb 0.00 in0.0 mm 0.00 in0.0 mm 0.00 in0.0 mm
01:00 AM 67.3°F19.6°C 57.6°F14.2°C 71% Calm Calm -- 29.76 in1007.8 mb 0.00 in0.0 mm 0.00 in0.0 mm 0.00 in0.0 mm
12:55 AM 67.1°F19.5°C 57.4°F14.1°C 71% Calm Calm -- 29.76 in1007.8 mb 0.00 in0.0 mm 0.00 in0.0 mm 0.00 in0.0 mm
12:50 AM 67.3°F19.6°C 57.6°F14.2°C 71% Calm Calm -- 29.75 in1007.5 mb 0.00 in0.0 mm 0.00 in0.0 mm 0.00 in0.0 mm
12:45 AM 67.5°F19.7°C 57.4°F14.1°C 70% Calm Calm -- 29.76 in1007.8 mb 0.00 in0.0 mm 0.00 in0.0 mm 0.00 in0.0 mm
12:40 AM 67.5°F19.7°C 57.0°F13.9°C 69% Calm Calm -- 29.76 in1007.8 mb 0.00 in0.0 mm 0.00 in0.0 mm 0.00 in0.0 mm
12:35 AM 68.0°F20.0°C 57.1°F13.9°C 68% Calm Calm -- 29.76 in1007.8 mb 0.00 in0.0 mm 0.00 in0.0 mm 0.00 in0.0 mm
12:30 AM 68.0°F20.0°C 56.2°F13.4°C 66% Calm Calm -- 29.76 in1007.8 mb 0.00 in0.0 mm 0.00 in0.0 mm 0.00 in0.0 mm
12:25 AM 68.2°F20.1°C 55.6°F13.1°C 64% Calm Calm -- 29.76 in1007.8 mb 0.00 in0.0 mm 0.00 in0.0 mm 0.00 in0.0 mm
12:20 AM 68.7°F20.4°C 55.2°F12.9°C 62% Calm Calm -- 29.77 in1008.1 mb 0.00 in0.0 mm 0.00 in0.0 mm 0.00 in0.0 mm
12:15 AM 68.9°F20.5°C 54.9°F12.7°C 61% Calm Calm -- 29.76 in1007.8 mb 0.00 in0.0 mm 0.00 in0.0 mm 0.00 in0.0 mm
12:10 AM 69.1°F20.6°C 55.1°F12.8°C 61% Calm Calm -- 29.76 in1007.8 mb 0.00 in0.0 mm 0.00 in0.0 mm 0.00 in0.0 mm
12:05 AM 69.4°F20.8°C 55.4°F13.0°C 61% Calm Calm -- 29.75 in1007.5 mb 0.00 in0.0 mm 0.00 in0.0 mm 0.00 in0.0 mm
12:00 AM 69.6°F20.9°C 55.6°F13.1°C 61% Calm Calm -- 29.77 in1008.1 mb 0.00 in0.0 mm 0.00 in0.0 mm 0.00 in0.0 mm